sensor_id;sensor_type;location;lat;lon;timestamp;temperature;humidity
52189;DHT22;38162;45.926;13.608;2023-07-29T00:02:00;24.30;90.30
52189;DHT22;38162;45.926;13.608;2023-07-29T00:04:26;24.30;90.30
52189;DHT22;38162;45.926;13.608;2023-07-29T00:06:51;24.30;90.40
52189;DHT22;38162;45.926;13.608;2023-07-29T00:09:17;24.30;90.40
52189;DHT22;38162;45.926;13.608;2023-07-29T00:11:43;24.20;90.40
52189;DHT22;38162;45.926;13.608;2023-07-29T00:14:09;24.20;90.30
52189;DHT22;38162;45.926;13.608;2023-07-29T00:16:35;24.20;90.30
52189;DHT22;38162;45.926;13.608;2023-07-29T00:19:01;24.20;90.30
52189;DHT22;38162;45.926;13.608;2023-07-29T00:21:27;24.10;90.30
52189;DHT22;38162;45.926;13.608;2023-07-29T00:23:53;24.10;90.40
52189;DHT22;38162;45.926;13.608;2023-07-29T00:26:19;24.10;90.50
52189;DHT22;38162;45.926;13.608;2023-07-29T00:28:45;24.00;90.60
52189;DHT22;38162;45.926;13.608;2023-07-29T00:31:11;24.00;90.70
52189;DHT22;38162;45.926;13.608;2023-07-29T00:33:37;24.00;91.00
52189;DHT22;38162;45.926;13.608;2023-07-29T00:36:03;24.00;90.80
52189;DHT22;38162;45.926;13.608;2023-07-29T00:38:29;23.90;91.00
52189;DHT22;38162;45.926;13.608;2023-07-29T00:41:00;24.00;90.90
52189;DHT22;38162;45.926;13.608;2023-07-29T00:43:25;23.90;90.90
52189;DHT22;38162;45.926;13.608;2023-07-29T00:45:51;23.90;90.90
52189;DHT22;38162;45.926;13.608;2023-07-29T00:48:17;23.90;91.00
52189;DHT22;38162;45.926;13.608;2023-07-29T00:50:44;23.90;91.30
52189;DHT22;38162;45.926;13.608;2023-07-29T00:53:10;23.90;91.00
52189;DHT22;38162;45.926;13.608;2023-07-29T00:55:36;23.90;91.00
52189;DHT22;38162;45.926;13.608;2023-07-29T00:58:02;23.90;91.00
52189;DHT22;38162;45.926;13.608;2023-07-29T01:00:28;23.90;91.00
52189;DHT22;38162;45.926;13.608;2023-07-29T01:02:54;23.90;91.00
52189;DHT22;38162;45.926;13.608;2023-07-29T01:05:20;23.90;91.00
52189;DHT22;38162;45.926;13.608;2023-07-29T01:13:23;23.80;91.10
52189;DHT22;38162;45.926;13.608;2023-07-29T01:16:09;23.80;91.10
52189;DHT22;38162;45.926;13.608;2023-07-29T01:18:38;23.80;91.20
52189;DHT22;38162;45.926;13.608;2023-07-29T01:21:08;23.80;91.30
52189;DHT22;38162;45.926;13.608;2023-07-29T01:23:35;23.80;91.30
52189;DHT22;38162;45.926;13.608;2023-07-29T01:26:02;23.80;91.40
52189;DHT22;38162;45.926;13.608;2023-07-29T01:28:28;23.80;91.40
52189;DHT22;38162;45.926;13.608;2023-07-29T01:33:39;23.80;91.40
52189;DHT22;38162;45.926;13.608;2023-07-29T01:36:13;23.80;91.50
52189;DHT22;38162;45.926;13.608;2023-07-29T01:38:42;23.80;91.50
52189;DHT22;38162;45.926;13.608;2023-07-29T01:41:09;23.80;91.50
52189;DHT22;38162;45.926;13.608;2023-07-29T01:43:36;23.80;91.50
52189;DHT22;38162;45.926;13.608;2023-07-29T01:46:12;23.80;91.50
52189;DHT22;38162;45.926;13.608;2023-07-29T01:48:38;23.70;91.50
52189;DHT22;38162;45.926;13.608;2023-07-29T01:51:05;23.80;91.60
52189;DHT22;38162;45.926;13.608;2023-07-29T01:53:32;23.80;91.50
52189;DHT22;38162;45.926;13.608;2023-07-29T01:55:57;23.70;91.40
52189;DHT22;38162;45.926;13.608;2023-07-29T01:58:24;23.70;91.40
52189;DHT22;38162;45.926;13.608;2023-07-29T02:00:50;23.70;91.40
52189;DHT22;38162;45.926;13.608;2023-07-29T02:03:16;23.70;91.50
52189;DHT22;38162;45.926;13.608;2023-07-29T02:05:41;23.70;91.50
52189;DHT22;38162;45.926;13.608;2023-07-29T02:08:09;23.70;91.50
52189;DHT22;38162;45.926;13.608;2023-07-29T02:10:35;23.70;91.50
52189;DHT22;38162;45.926;13.608;2023-07-29T02:13:01;23.70;91.40
52189;DHT22;38162;45.926;13.608;2023-07-29T02:15:27;23.70;91.70
52189;DHT22;38162;45.926;13.608;2023-07-29T02:17:53;23.70;91.50
52189;DHT22;38162;45.926;13.608;2023-07-29T02:20:19;23.70;91.50
52189;DHT22;38162;45.926;13.608;2023-07-29T02:22:45;23.70;91.50
52189;DHT22;38162;45.926;13.608;2023-07-29T02:25:11;23.60;91.50
52189;DHT22;38162;45.926;13.608;2023-07-29T02:27:36;23.60;91.60
52189;DHT22;38162;45.926;13.608;2023-07-29T02:30:02;23.60;91.60
52189;DHT22;38162;45.926;13.608;2023-07-29T02:32:28;23.60;91.70
52189;DHT22;38162;45.926;13.608;2023-07-29T02:34:54;23.60;91.70
52189;DHT22;38162;45.926;13.608;2023-07-29T02:37:20;23.70;91.60
52189;DHT22;38162;45.926;13.608;2023-07-29T02:39:46;23.60;91.70
52189;DHT22;38162;45.926;13.608;2023-07-29T02:42:12;23.60;91.70
52189;DHT22;38162;45.926;13.608;2023-07-29T02:44:38;23.60;91.80
52189;DHT22;38162;45.926;13.608;2023-07-29T02:47:04;23.60;91.90
52189;DHT22;38162;45.926;13.608;2023-07-29T02:49:30;23.60;92.10
52189;DHT22;38162;45.926;13.608;2023-07-29T02:51:56;23.60;92.40
52189;DHT22;38162;45.926;13.608;2023-07-29T02:54:21;23.60;92.70
52189;DHT22;38162;45.926;13.608;2023-07-29T02:56:47;23.60;92.90
52189;DHT22;38162;45.926;13.608;2023-07-29T02:59:13;23.60;93.10
52189;DHT22;38162;45.926;13.608;2023-07-29T03:01:39;23.60;93.30
52189;DHT22;38162;45.926;13.608;2023-07-29T03:04:05;23.50;93.30
52189;DHT22;38162;45.926;13.608;2023-07-29T03:06:31;23.50;93.40
52189;DHT22;38162;45.926;13.608;2023-07-29T03:08:56;23.50;93.40
52189;DHT22;38162;45.926;13.608;2023-07-29T03:11:22;23.50;93.60
52189;DHT22;38162;45.926;13.608;2023-07-29T03:13:48;23.40;93.70
52189;DHT22;38162;45.926;13.608;2023-07-29T03:16:15;23.40;93.80
52189;DHT22;38162;45.926;13.608;2023-07-29T03:18:42;23.40;93.90
52189;DHT22;38162;45.926;13.608;2023-07-29T03:21:08;23.30;93.90
52189;DHT22;38162;45.926;13.608;2023-07-29T03:23:34;23.30;94.10
52189;DHT22;38162;45.926;13.608;2023-07-29T03:26:01;23.20;94.10
52189;DHT22;38162;45.926;13.608;2023-07-29T03:28:32;23.10;94.10
52189;DHT22;38162;45.926;13.608;2023-07-29T03:30:58;23.10;94.30
52189;DHT22;38162;45.926;13.608;2023-07-29T03:33:25;23.10;94.80
52189;DHT22;38162;45.926;13.608;2023-07-29T03:35:52;23.00;94.60
52189;DHT22;38162;45.926;13.608;2023-07-29T03:38:18;23.00;94.70
52189;DHT22;38162;45.926;13.608;2023-07-29T03:40:43;23.00;94.80
52189;DHT22;38162;45.926;13.608;2023-07-29T03:43:09;23.00;95.00
52189;DHT22;38162;45.926;13.608;2023-07-29T03:45:36;23.00;95.00
52189;DHT22;38162;45.926;13.608;2023-07-29T03:48:03;23.00;95.00
52189;DHT22;38162;45.926;13.608;2023-07-29T03:50:29;23.00;95.00
52189;DHT22;38162;45.926;13.608;2023-07-29T03:52:56;23.00;95.00
52189;DHT22;38162;45.926;13.608;2023-07-29T03:55:22;23.00;95.10
52189;DHT22;38162;45.926;13.608;2023-07-29T03:57:47;23.00;95.20
52189;DHT22;38162;45.926;13.608;2023-07-29T04:00:13;23.00;95.20
52189;DHT22;38162;45.926;13.608;2023-07-29T04:02:40;23.00;95.10
52189;DHT22;38162;45.926;13.608;2023-07-29T04:05:06;23.00;95.10
52189;DHT22;38162;45.926;13.608;2023-07-29T04:07:37;23.00;95.10
52189;DHT22;38162;45.926;13.608;2023-07-29T04:10:03;23.00;95.10
52189;DHT22;38162;45.926;13.608;2023-07-29T04:12:30;23.00;95.10
52189;DHT22;38162;45.926;13.608;2023-07-29T04:14:56;23.00;95.10
52189;DHT22;38162;45.926;13.608;2023-07-29T04:17:21;23.00;95.10
52189;DHT22;38162;45.926;13.608;2023-07-29T04:19:47;23.00;95.10
52189;DHT22;38162;45.926;13.608;2023-07-29T04:22:15;22.90;95.20
52189;DHT22;38162;45.926;13.608;2023-07-29T04:24:41;22.90;95.20
52189;DHT22;38162;45.926;13.608;2023-07-29T04:27:06;22.90;95.20
52189;DHT22;38162;45.926;13.608;2023-07-29T04:29:32;22.90;95.30
52189;DHT22;38162;45.926;13.608;2023-07-29T04:31:58;22.90;95.30
52189;DHT22;38162;45.926;13.608;2023-07-29T04:34:24;22.90;95.30
52189;DHT22;38162;45.926;13.608;2023-07-29T04:36:49;22.90;95.40
52189;DHT22;38162;45.926;13.608;2023-07-29T04:39:15;22.90;95.40
52189;DHT22;38162;45.926;13.608;2023-07-29T04:41:41;22.90;95.40
52189;DHT22;38162;45.926;13.608;2023-07-29T04:44:07;22.90;95.30
52189;DHT22;38162;45.926;13.608;2023-07-29T04:46:33;22.90;95.40
52189;DHT22;38162;45.926;13.608;2023-07-29T04:48:59;22.90;95.40
52189;DHT22;38162;45.926;13.608;2023-07-29T04:51:24;22.90;95.50
52189;DHT22;38162;45.926;13.608;2023-07-29T04:53:50;22.90;95.50
52189;DHT22;38162;45.926;13.608;2023-07-29T04:56:16;22.90;95.60
52189;DHT22;38162;45.926;13.608;2023-07-29T04:58:42;22.90;95.60
52189;DHT22;38162;45.926;13.608;2023-07-29T05:01:08;22.90;95.70
52189;DHT22;38162;45.926;13.608;2023-07-29T05:03:33;22.90;95.70
52189;DHT22;38162;45.926;13.608;2023-07-29T05:05:59;22.90;95.60
52189;DHT22;38162;45.926;13.608;2023-07-29T05:08:26;22.90;95.60
52189;DHT22;38162;45.926;13.608;2023-07-29T05:10:52;22.90;95.70
52189;DHT22;38162;45.926;13.608;2023-07-29T05:13:19;22.90;95.70
52189;DHT22;38162;45.926;13.608;2023-07-29T05:15:47;22.90;95.80
52189;DHT22;38162;45.926;13.608;2023-07-29T05:18:13;22.90;95.90
52189;DHT22;38162;45.926;13.608;2023-07-29T05:20:39;22.90;95.80
52189;DHT22;38162;45.926;13.608;2023-07-29T05:23:05;22.90;95.90
52189;DHT22;38162;45.926;13.608;2023-07-29T05:25:30;22.90;95.90
52189;DHT22;38162;45.926;13.608;2023-07-29T05:27:56;22.90;95.90
52189;DHT22;38162;45.926;13.608;2023-07-29T05:30:23;22.90;96.00
52189;DHT22;38162;45.926;13.608;2023-07-29T05:32:48;22.90;95.90
52189;DHT22;38162;45.926;13.608;2023-07-29T05:35:14;22.90;95.90
52189;DHT22;38162;45.926;13.608;2023-07-29T05:37:40;23.00;96.10
52189;DHT22;38162;45.926;13.608;2023-07-29T05:40:07;23.00;96.10
52189;DHT22;38162;45.926;13.608;2023-07-29T05:42:33;23.00;96.10
52189;DHT22;38162;45.926;13.608;2023-07-29T05:44:59;23.10;96.20
52189;DHT22;38162;45.926;13.608;2023-07-29T05:47:25;23.00;96.10
52189;DHT22;38162;45.926;13.608;2023-07-29T05:49:51;23.00;96.20
52189;DHT22;38162;45.926;13.608;2023-07-29T05:52:17;23.10;96.20
52189;DHT22;38162;45.926;13.608;2023-07-29T05:54:43;23.10;96.30
52189;DHT22;38162;45.926;13.608;2023-07-29T05:57:10;23.10;96.20
52189;DHT22;38162;45.926;13.608;2023-07-29T05:59:35;23.10;96.20
52189;DHT22;38162;45.926;13.608;2023-07-29T06:02:01;23.10;96.20
52189;DHT22;38162;45.926;13.608;2023-07-29T06:04:27;23.20;96.20
52189;DHT22;38162;45.926;13.608;2023-07-29T06:06:53;23.20;96.20
52189;DHT22;38162;45.926;13.608;2023-07-29T06:09:18;23.20;96.20
52189;DHT22;38162;45.926;13.608;2023-07-29T06:11:44;23.20;96.20
52189;DHT22;38162;45.926;13.608;2023-07-29T06:14:10;23.20;96.10
52189;DHT22;38162;45.926;13.608;2023-07-29T06:16:35;23.20;96.10
52189;DHT22;38162;45.926;13.608;2023-07-29T06:19:01;23.20;96.10
52189;DHT22;38162;45.926;13.608;2023-07-29T06:21:27;23.20;96.00
52189;DHT22;38162;45.926;13.608;2023-07-29T06:23:53;23.20;96.00
52189;DHT22;38162;45.926;13.608;2023-07-29T06:26:18;23.30;95.80
52189;DHT22;38162;45.926;13.608;2023-07-29T06:28:44;23.30;96.10
52189;DHT22;38162;45.926;13.608;2023-07-29T06:31:10;23.30;95.80
52189;DHT22;38162;45.926;13.608;2023-07-29T06:33:36;23.30;95.50
52189;DHT22;38162;45.926;13.608;2023-07-29T06:36:01;23.30;95.40
52189;DHT22;38162;45.926;13.608;2023-07-29T06:38:27;23.30;95.60
52189;DHT22;38162;45.926;13.608;2023-07-29T06:40:53;23.30;95.60
52189;DHT22;38162;45.926;13.608;2023-07-29T06:43:19;23.30;95.60
52189;DHT22;38162;45.926;13.608;2023-07-29T06:45:45;23.30;95.70
52189;DHT22;38162;45.926;13.608;2023-07-29T06:48:10;23.30;95.90
52189;DHT22;38162;45.926;13.608;2023-07-29T06:50:36;23.30;96.00
52189;DHT22;38162;45.926;13.608;2023-07-29T06:53:03;23.40;95.90
52189;DHT22;38162;45.926;13.608;2023-07-29T06:55:29;23.40;95.80
52189;DHT22;38162;45.926;13.608;2023-07-29T06:57:54;23.40;95.30
52189;DHT22;38162;45.926;13.608;2023-07-29T07:00:20;23.50;94.80
52189;DHT22;38162;45.926;13.608;2023-07-29T07:02:46;23.50;94.70
52189;DHT22;38162;45.926;13.608;2023-07-29T07:05:12;23.50;94.60
52189;DHT22;38162;45.926;13.608;2023-07-29T07:07:37;23.60;94.60
52189;DHT22;38162;45.926;13.608;2023-07-29T07:10:03;23.60;94.70
52189;DHT22;38162;45.926;13.608;2023-07-29T07:12:29;23.60;94.70
52189;DHT22;38162;45.926;13.608;2023-07-29T07:14:55;23.60;94.80
52189;DHT22;38162;45.926;13.608;2023-07-29T07:17:21;23.60;94.90
52189;DHT22;38162;45.926;13.608;2023-07-29T07:19:46;23.70;94.80
52189;DHT22;38162;45.926;13.608;2023-07-29T07:22:12;23.70;94.60
52189;DHT22;38162;45.926;13.608;2023-07-29T07:24:38;23.80;94.50
52189;DHT22;38162;45.926;13.608;2023-07-29T07:27:04;23.80;94.40
52189;DHT22;38162;45.926;13.608;2023-07-29T07:29:30;23.80;94.40
52189;DHT22;38162;45.926;13.608;2023-07-29T07:31:56;23.80;94.40
52189;DHT22;38162;45.926;13.608;2023-07-29T07:34:22;23.80;94.40
52189;DHT22;38162;45.926;13.608;2023-07-29T07:36:48;23.80;94.20
52189;DHT22;38162;45.926;13.608;2023-07-29T07:39:14;23.80;94.20
52189;DHT22;38162;45.926;13.608;2023-07-29T07:41:40;23.90;94.30
52189;DHT22;38162;45.926;13.608;2023-07-29T07:44:06;23.90;94.30
52189;DHT22;38162;45.926;13.608;2023-07-29T07:46:32;23.90;94.40
52189;DHT22;38162;45.926;13.608;2023-07-29T07:48:58;24.00;94.40
52189;DHT22;38162;45.926;13.608;2023-07-29T07:51:24;24.00;94.20
52189;DHT22;38162;45.926;13.608;2023-07-29T07:53:49;24.10;94.10
52189;DHT22;38162;45.926;13.608;2023-07-29T07:56:15;24.10;94.20
52189;DHT22;38162;45.926;13.608;2023-07-29T07:58:41;24.20;94.00
52189;DHT22;38162;45.926;13.608;2023-07-29T08:01:08;24.20;94.10
52189;DHT22;38162;45.926;13.608;2023-07-29T08:03:35;24.30;94.20
52189;DHT22;38162;45.926;13.608;2023-07-29T08:06:01;24.30;93.90
52189;DHT22;38162;45.926;13.608;2023-07-29T08:08:28;24.30;93.30
52189;DHT22;38162;45.926;13.608;2023-07-29T08:10:54;24.30;92.90
52189;DHT22;38162;45.926;13.608;2023-07-29T08:13:21;24.50;92.70
52189;DHT22;38162;45.926;13.608;2023-07-29T08:15:48;24.50;92.30
52189;DHT22;38162;45.926;13.608;2023-07-29T08:18:14;24.50;91.40
52189;DHT22;38162;45.926;13.608;2023-07-29T08:20:40;24.50;91.60
52189;DHT22;38162;45.926;13.608;2023-07-29T08:23:05;24.60;91.60
52189;DHT22;38162;45.926;13.608;2023-07-29T08:25:31;24.60;91.30
52189;DHT22;38162;45.926;13.608;2023-07-29T08:27:57;24.70;91.60
52189;DHT22;38162;45.926;13.608;2023-07-29T08:30:23;24.70;91.80
52189;DHT22;38162;45.926;13.608;2023-07-29T08:32:48;24.80;91.70
52189;DHT22;38162;45.926;13.608;2023-07-29T08:35:14;24.90;91.50
52189;DHT22;38162;45.926;13.608;2023-07-29T08:37:41;24.90;91.20
52189;DHT22;38162;45.926;13.608;2023-07-29T08:40:07;24.90;90.90
52189;DHT22;38162;45.926;13.608;2023-07-29T08:42:33;25.00;90.40
52189;DHT22;38162;45.926;13.608;2023-07-29T08:45:06;25.00;90.00
52189;DHT22;38162;45.926;13.608;2023-07-29T08:47:36;25.00;89.80
52189;DHT22;38162;45.926;13.608;2023-07-29T08:50:03;25.10;89.70
52189;DHT22;38162;45.926;13.608;2023-07-29T08:52:29;25.10;89.30
52189;DHT22;38162;45.926;13.608;2023-07-29T08:54:57;25.10;89.00
52189;DHT22;38162;45.926;13.608;2023-07-29T08:57:23;25.20;89.20
52189;DHT22;38162;45.926;13.608;2023-07-29T08:59:50;25.20;89.10
52189;DHT22;38162;45.926;13.608;2023-07-29T09:02:15;25.30;88.50
52189;DHT22;38162;45.926;13.608;2023-07-29T09:04:42;25.30;87.30
52189;DHT22;38162;45.926;13.608;2023-07-29T09:07:08;25.40;88.20
52189;DHT22;38162;45.926;13.608;2023-07-29T09:09:34;25.40;88.10
52189;DHT22;38162;45.926;13.608;2023-07-29T09:12:00;25.50;85.50
52189;DHT22;38162;45.926;13.608;2023-07-29T09:14:26;25.50;86.10
52189;DHT22;38162;45.926;13.608;2023-07-29T09:16:53;25.60;86.40
52189;DHT22;38162;45.926;13.608;2023-07-29T09:19:19;25.60;86.10
52189;DHT22;38162;45.926;13.608;2023-07-29T09:21:46;25.60;86.40
52189;DHT22;38162;45.926;13.608;2023-07-29T09:24:12;25.70;87.20
52189;DHT22;38162;45.926;13.608;2023-07-29T09:26:49;25.70;86.00
52189;DHT22;38162;45.926;13.608;2023-07-29T09:29:14;25.80;85.60
52189;DHT22;38162;45.926;13.608;2023-07-29T09:31:40;25.80;85.50
52189;DHT22;38162;45.926;13.608;2023-07-29T09:34:06;25.90;85.70
52189;DHT22;38162;45.926;13.608;2023-07-29T09:36:33;25.90;85.30
52189;DHT22;38162;45.926;13.608;2023-07-29T09:38:59;26.00;84.90
52189;DHT22;38162;45.926;13.608;2023-07-29T09:41:29;26.00;84.30
52189;DHT22;38162;45.926;13.608;2023-07-29T09:44:04;26.00;83.80
52189;DHT22;38162;45.926;13.608;2023-07-29T09:46:36;26.00;83.30
52189;DHT22;38162;45.926;13.608;2023-07-29T09:49:04;26.10;83.60
52189;DHT22;38162;45.926;13.608;2023-07-29T09:51:30;26.20;83.20
52189;DHT22;38162;45.926;13.608;2023-07-29T09:53:56;26.20;84.00
52189;DHT22;38162;45.926;13.608;2023-07-29T09:56:26;26.20;83.70
52189;DHT22;38162;45.926;13.608;2023-07-29T09:58:52;26.30;83.90
52189;DHT22;38162;45.926;13.608;2023-07-29T10:01:20;26.30;84.10
52189;DHT22;38162;45.926;13.608;2023-07-29T10:03:47;26.30;83.40
52189;DHT22;38162;45.926;13.608;2023-07-29T10:06:14;26.40;82.70
52189;DHT22;38162;45.926;13.608;2023-07-29T10:08:42;26.40;83.40
52189;DHT22;38162;45.926;13.608;2023-07-29T10:11:09;26.50;83.90
52189;DHT22;38162;45.926;13.608;2023-07-29T10:13:37;26.50;82.70
52189;DHT22;38162;45.926;13.608;2023-07-29T10:16:04;26.50;81.80
52189;DHT22;38162;45.926;13.608;2023-07-29T10:18:31;26.50;80.80
52189;DHT22;38162;45.926;13.608;2023-07-29T10:20:59;26.60;81.00
52189;DHT22;38162;45.926;13.608;2023-07-29T10:23:27;26.60;80.80
52189;DHT22;38162;45.926;13.608;2023-07-29T10:26:06;26.60;80.50
52189;DHT22;38162;45.926;13.608;2023-07-29T10:28:41;26.70;81.90
52189;DHT22;38162;45.926;13.608;2023-07-29T10:31:08;26.70;81.20
52189;DHT22;38162;45.926;13.608;2023-07-29T10:33:35;26.80;80.90
52189;DHT22;38162;45.926;13.608;2023-07-29T10:36:03;26.80;80.50
52189;DHT22;38162;45.926;13.608;2023-07-29T10:38:30;26.90;80.60
52189;DHT22;38162;45.926;13.608;2023-07-29T10:40:56;27.00;81.30
52189;DHT22;38162;45.926;13.608;2023-07-29T10:43:38;27.00;79.40
52189;DHT22;38162;45.926;13.608;2023-07-29T10:46:20;27.00;79.00
52189;DHT22;38162;45.926;13.608;2023-07-29T10:48:56;27.00;78.90
52189;DHT22;38162;45.926;13.608;2023-07-29T10:51:36;27.00;78.50
52189;DHT22;38162;45.926;13.608;2023-07-29T10:54:14;27.10;77.90
52189;DHT22;38162;45.926;13.608;2023-07-29T10:56:42;27.10;77.80
52189;DHT22;38162;45.926;13.608;2023-07-29T11:01:59;27.20;79.40
52189;DHT22;38162;45.926;13.608;2023-07-29T11:04:29;27.30;79.80
52189;DHT22;38162;45.926;13.608;2023-07-29T11:12:45;27.40;78.20
52189;DHT22;38162;45.926;13.608;2023-07-29T11:17:43;27.50;79.90
52189;DHT22;38162;45.926;13.608;2023-07-29T11:20:10;27.60;79.50
52189;DHT22;38162;45.926;13.608;2023-07-29T11:22:37;27.60;78.00
52189;DHT22;38162;45.926;13.608;2023-07-29T11:25:03;27.60;76.90
52189;DHT22;38162;45.926;13.608;2023-07-29T11:27:29;27.70;75.60
52189;DHT22;38162;45.926;13.608;2023-07-29T11:30:02;27.70;74.80
52189;DHT22;38162;45.926;13.608;2023-07-29T11:32:28;27.70;73.20
52189;DHT22;38162;45.926;13.608;2023-07-29T11:34:54;27.70;73.80
52189;DHT22;38162;45.926;13.608;2023-07-29T11:37:20;27.80;72.90
52189;DHT22;38162;45.926;13.608;2023-07-29T11:39:48;27.80;73.10
52189;DHT22;38162;45.926;13.608;2023-07-29T11:42:14;27.80;74.30
52189;DHT22;38162;45.926;13.608;2023-07-29T11:44:41;27.80;73.80
52189;DHT22;38162;45.926;13.608;2023-07-29T11:47:07;27.90;74.80
52189;DHT22;38162;45.926;13.608;2023-07-29T11:49:34;27.90;74.00
52189;DHT22;38162;45.926;13.608;2023-07-29T11:52:00;27.90;73.10
52189;DHT22;38162;45.926;13.608;2023-07-29T11:54:26;28.00;72.70
52189;DHT22;38162;45.926;13.608;2023-07-29T11:56:52;28.00;73.10
52189;DHT22;38162;45.926;13.608;2023-07-29T11:59:18;28.00;75.60
52189;DHT22;38162;45.926;13.608;2023-07-29T12:01:48;28.00;76.40
52189;DHT22;38162;45.926;13.608;2023-07-29T12:04:17;28.00;76.00
52189;DHT22;38162;45.926;13.608;2023-07-29T12:06:43;28.10;76.30
52189;DHT22;38162;45.926;13.608;2023-07-29T12:09:21;28.00;76.50
52189;DHT22;38162;45.926;13.608;2023-07-29T12:11:47;28.00;75.40
52189;DHT22;38162;45.926;13.608;2023-07-29T12:14:20;28.10;75.20
52189;DHT22;38162;45.926;13.608;2023-07-29T12:16:48;28.10;74.00
52189;DHT22;38162;45.926;13.608;2023-07-29T12:19:15;28.10;73.20
52189;DHT22;38162;45.926;13.608;2023-07-29T12:21:42;28.20;73.70
52189;DHT22;38162;45.926;13.608;2023-07-29T12:24:08;28.30;75.70
52189;DHT22;38162;45.926;13.608;2023-07-29T12:26:35;28.30;73.10
52189;DHT22;38162;45.926;13.608;2023-07-29T12:29:11;28.30;73.20
52189;DHT22;38162;45.926;13.608;2023-07-29T12:31:38;28.40;74.00
52189;DHT22;38162;45.926;13.608;2023-07-29T12:34:03;28.40;73.50
52189;DHT22;38162;45.926;13.608;2023-07-29T12:39:22;28.50;72.90
52189;DHT22;38162;45.926;13.608;2023-07-29T12:41:50;28.60;73.00
52189;DHT22;38162;45.926;13.608;2023-07-29T12:44:17;28.60;72.90
52189;DHT22;38162;45.926;13.608;2023-07-29T12:46:43;28.60;72.60
52189;DHT22;38162;45.926;13.608;2023-07-29T12:49:09;28.70;73.40
52189;DHT22;38162;45.926;13.608;2023-07-29T12:51:35;28.70;74.40
52189;DHT22;38162;45.926;13.608;2023-07-29T12:54:03;28.70;73.50
52189;DHT22;38162;45.926;13.608;2023-07-29T12:56:29;28.70;73.10
52189;DHT22;38162;45.926;13.608;2023-07-29T12:58:57;28.80;73.80
52189;DHT22;38162;45.926;13.608;2023-07-29T13:01:23;28.80;74.20
52189;DHT22;38162;45.926;13.608;2023-07-29T13:03:49;28.80;72.30
52189;DHT22;38162;45.926;13.608;2023-07-29T13:06:15;28.80;72.40
52189;DHT22;38162;45.926;13.608;2023-07-29T13:08:42;28.80;72.80
52189;DHT22;38162;45.926;13.608;2023-07-29T13:11:08;28.80;72.60
52189;DHT22;38162;45.926;13.608;2023-07-29T13:13:34;28.80;72.70
52189;DHT22;38162;45.926;13.608;2023-07-29T13:16:00;28.80;72.90
52189;DHT22;38162;45.926;13.608;2023-07-29T13:18:26;28.80;71.60
52189;DHT22;38162;45.926;13.608;2023-07-29T13:20:53;28.80;71.50
52189;DHT22;38162;45.926;13.608;2023-07-29T13:23:19;28.80;71.40
52189;DHT22;38162;45.926;13.608;2023-07-29T13:25:44;28.70;71.20
52189;DHT22;38162;45.926;13.608;2023-07-29T13:28:11;28.60;71.10
52189;DHT22;38162;45.926;13.608;2023-07-29T13:30:39;28.60;72.10
52189;DHT22;38162;45.926;13.608;2023-07-29T13:33:05;28.60;70.70
52189;DHT22;38162;45.926;13.608;2023-07-29T13:35:30;28.60;69.50
52189;DHT22;38162;45.926;13.608;2023-07-29T13:37:56;28.70;69.10
52189;DHT22;38162;45.926;13.608;2023-07-29T13:40:22;28.60;67.70
52189;DHT22;38162;45.926;13.608;2023-07-29T13:42:47;28.70;68.60
52189;DHT22;38162;45.926;13.608;2023-07-29T13:45:13;28.80;68.30
52189;DHT22;38162;45.926;13.608;2023-07-29T13:47:39;28.80;67.20
52189;DHT22;38162;45.926;13.608;2023-07-29T13:50:05;28.80;66.10
52189;DHT22;38162;45.926;13.608;2023-07-29T13:52:33;28.80;64.50
52189;DHT22;38162;45.926;13.608;2023-07-29T13:54:59;28.80;65.10
52189;DHT22;38162;45.926;13.608;2023-07-29T13:57:24;28.80;65.40
52189;DHT22;38162;45.926;13.608;2023-07-29T13:59:50;28.80;64.20
52189;DHT22;38162;45.926;13.608;2023-07-29T14:02:16;28.80;64.50
52189;DHT22;38162;45.926;13.608;2023-07-29T14:04:42;28.80;65.30
52189;DHT22;38162;45.926;13.608;2023-07-29T14:07:07;28.80;65.00
52189;DHT22;38162;45.926;13.608;2023-07-29T14:09:33;28.80;64.20
52189;DHT22;38162;45.926;13.608;2023-07-29T14:11:59;28.80;65.50
52189;DHT22;38162;45.926;13.608;2023-07-29T14:14:25;28.80;65.70
52189;DHT22;38162;45.926;13.608;2023-07-29T14:16:50;28.80;66.50
52189;DHT22;38162;45.926;13.608;2023-07-29T14:19:16;28.80;65.70
52189;DHT22;38162;45.926;13.608;2023-07-29T14:21:42;28.80;67.00
52189;DHT22;38162;45.926;13.608;2023-07-29T14:24:07;28.80;67.30
52189;DHT22;38162;45.926;13.608;2023-07-29T14:26:33;28.80;67.80
52189;DHT22;38162;45.926;13.608;2023-07-29T14:28:59;28.80;68.00
52189;DHT22;38162;45.926;13.608;2023-07-29T14:31:24;28.90;68.10
52189;DHT22;38162;45.926;13.608;2023-07-29T14:33:50;28.90;68.10
52189;DHT22;38162;45.926;13.608;2023-07-29T14:36:16;28.90;68.60
52189;DHT22;38162;45.926;13.608;2023-07-29T14:38:42;28.90;68.60
52189;DHT22;38162;45.926;13.608;2023-07-29T14:41:08;28.90;68.60
52189;DHT22;38162;45.926;13.608;2023-07-29T14:43:34;28.90;68.00
52189;DHT22;38162;45.926;13.608;2023-07-29T14:46:01;28.90;66.50
52189;DHT22;38162;45.926;13.608;2023-07-29T14:48:27;29.00;66.10
52189;DHT22;38162;45.926;13.608;2023-07-29T14:50:53;28.90;65.30
52189;DHT22;38162;45.926;13.608;2023-07-29T14:53:18;28.90;65.50
52189;DHT22;38162;45.926;13.608;2023-07-29T14:55:45;28.90;64.70
52189;DHT22;38162;45.926;13.608;2023-07-29T14:58:10;28.90;64.80
52189;DHT22;38162;45.926;13.608;2023-07-29T15:00:36;28.90;65.70
52189;DHT22;38162;45.926;13.608;2023-07-29T15:03:02;28.90;66.70
52189;DHT22;38162;45.926;13.608;2023-07-29T15:05:28;28.90;65.50
52189;DHT22;38162;45.926;13.608;2023-07-29T15:07:54;28.90;64.00
52189;DHT22;38162;45.926;13.608;2023-07-29T15:10:21;28.90;65.40
52189;DHT22;38162;45.926;13.608;2023-07-29T15:12:47;28.90;66.60
52189;DHT22;38162;45.926;13.608;2023-07-29T15:15:13;28.90;66.20
52189;DHT22;38162;45.926;13.608;2023-07-29T15:17:39;28.90;65.60
52189;DHT22;38162;45.926;13.608;2023-07-29T15:20:05;28.90;65.50
52189;DHT22;38162;45.926;13.608;2023-07-29T15:22:31;28.90;65.70
52189;DHT22;38162;45.926;13.608;2023-07-29T15:24:59;28.90;65.60
52189;DHT22;38162;45.926;13.608;2023-07-29T15:27:27;28.90;65.40
52189;DHT22;38162;45.926;13.608;2023-07-29T15:29:52;28.90;65.50
52189;DHT22;38162;45.926;13.608;2023-07-29T15:32:18;28.90;65.10
52189;DHT22;38162;45.926;13.608;2023-07-29T15:34:44;28.90;65.30